sensor_id;sensor_type;location;lat;lon;timestamp;temperature;humidity
38265;DHT22;24062;47.480;8.768;2023-04-24T00:00:25;10.50;95.40
38265;DHT22;24062;47.480;8.768;2023-04-24T00:02:52;10.50;95.70
38265;DHT22;24062;47.480;8.768;2023-04-24T00:05:24;10.50;95.70
38265;DHT22;24062;47.480;8.768;2023-04-24T00:07:51;10.50;95.00
38265;DHT22;24062;47.480;8.768;2023-04-24T00:10:19;10.40;95.40
38265;DHT22;24062;47.480;8.768;2023-04-24T00:12:46;10.40;95.20
38265;DHT22;24062;47.480;8.768;2023-04-24T00:15:13;10.50;95.30
38265;DHT22;24062;47.480;8.768;2023-04-24T00:17:40;10.40;94.40
38265;DHT22;24062;47.480;8.768;2023-04-24T00:20:08;10.30;94.80
38265;DHT22;24062;47.480;8.768;2023-04-24T00:22:37;10.30;94.70
38265;DHT22;24062;47.480;8.768;2023-04-24T00:25:04;10.30;95.30
38265;DHT22;24062;47.480;8.768;2023-04-24T00:27:32;10.30;95.60
38265;DHT22;24062;47.480;8.768;2023-04-24T00:30:00;10.30;95.30
38265;DHT22;24062;47.480;8.768;2023-04-24T00:32:27;10.30;95.30
38265;DHT22;24062;47.480;8.768;2023-04-24T00:34:54;10.30;95.20
38265;DHT22;24062;47.480;8.768;2023-04-24T00:37:21;10.30;95.40
38265;DHT22;24062;47.480;8.768;2023-04-24T00:39:49;10.30;95.40
38265;DHT22;24062;47.480;8.768;2023-04-24T00:42:16;10.20;94.90
38265;DHT22;24062;47.480;8.768;2023-04-24T00:44:43;10.20;95.50
38265;DHT22;24062;47.480;8.768;2023-04-24T00:47:11;10.10;95.30
38265;DHT22;24062;47.480;8.768;2023-04-24T00:49:38;10.10;95.40
38265;DHT22;24062;47.480;8.768;2023-04-24T00:52:05;10.10;95.50
38265;DHT22;24062;47.480;8.768;2023-04-24T00:54:34;10.10;95.60
38265;DHT22;24062;47.480;8.768;2023-04-24T00:57:03;10.10;95.80
38265;DHT22;24062;47.480;8.768;2023-04-24T00:59:30;10.10;95.60
38265;DHT22;24062;47.480;8.768;2023-04-24T01:01:58;10.10;95.90
38265;DHT22;24062;47.480;8.768;2023-04-24T01:04:25;10.00;95.90
38265;DHT22;24062;47.480;8.768;2023-04-24T01:06:53;10.00;96.20
38265;DHT22;24062;47.480;8.768;2023-04-24T01:09:22;10.00;96.80
38265;DHT22;24062;47.480;8.768;2023-04-24T01:11:50;10.10;96.80
38265;DHT22;24062;47.480;8.768;2023-04-24T01:14:18;10.10;96.70
38265;DHT22;24062;47.480;8.768;2023-04-24T01:16:45;10.20;96.80
38265;DHT22;24062;47.480;8.768;2023-04-24T01:19:13;10.20;96.70
38265;DHT22;24062;47.480;8.768;2023-04-24T01:21:42;10.20;96.50
38265;DHT22;24062;47.480;8.768;2023-04-24T01:24:11;10.20;96.10
38265;DHT22;24062;47.480;8.768;2023-04-24T01:26:39;10.10;96.10
38265;DHT22;24062;47.480;8.768;2023-04-24T01:29:06;10.10;96.30
38265;DHT22;24062;47.480;8.768;2023-04-24T01:31:33;10.10;95.90
38265;DHT22;24062;47.480;8.768;2023-04-24T01:34:01;10.00;95.10
38265;DHT22;24062;47.480;8.768;2023-04-24T01:36:29;10.00;95.80
38265;DHT22;24062;47.480;8.768;2023-04-24T01:38:56;10.00;96.10
38265;DHT22;24062;47.480;8.768;2023-04-24T01:41:25;10.00;95.80
38265;DHT22;24062;47.480;8.768;2023-04-24T01:43:52;10.00;95.70
38265;DHT22;24062;47.480;8.768;2023-04-24T01:46:20;9.90;96.40
38265;DHT22;24062;47.480;8.768;2023-04-24T01:48:47;9.90;96.20
38265;DHT22;24062;47.480;8.768;2023-04-24T01:51:14;9.90;96.10
38265;DHT22;24062;47.480;8.768;2023-04-24T01:53:41;9.90;95.40
38265;DHT22;24062;47.480;8.768;2023-04-24T01:56:09;9.80;95.90
38265;DHT22;24062;47.480;8.768;2023-04-24T01:58:37;9.80;96.20
38265;DHT22;24062;47.480;8.768;2023-04-24T02:01:06;9.80;96.50
38265;DHT22;24062;47.480;8.768;2023-04-24T02:03:33;9.80;96.40
38265;DHT22;24062;47.480;8.768;2023-04-24T02:06:00;9.80;96.50
38265;DHT22;24062;47.480;8.768;2023-04-24T02:08:27;9.80;96.50
38265;DHT22;24062;47.480;8.768;2023-04-24T02:10:54;9.70;96.20
38265;DHT22;24062;47.480;8.768;2023-04-24T02:13:21;9.60;96.10
38265;DHT22;24062;47.480;8.768;2023-04-24T02:15:49;9.60;96.10
38265;DHT22;24062;47.480;8.768;2023-04-24T02:18:16;9.50;96.20
38265;DHT22;24062;47.480;8.768;2023-04-24T02:20:43;9.50;96.00
38265;DHT22;24062;47.480;8.768;2023-04-24T02:23:09;9.40;96.50
38265;DHT22;24062;47.480;8.768;2023-04-24T02:25:37;9.40;96.50
38265;DHT22;24062;47.480;8.768;2023-04-24T02:28:03;9.30;96.80
38265;DHT22;24062;47.480;8.768;2023-04-24T02:30:30;9.30;96.90
38265;DHT22;24062;47.480;8.768;2023-04-24T02:32:59;9.30;97.20
38265;DHT22;24062;47.480;8.768;2023-04-24T02:35:26;9.30;97.10
38265;DHT22;24062;47.480;8.768;2023-04-24T02:37:52;9.30;97.10
38265;DHT22;24062;47.480;8.768;2023-04-24T02:40:19;9.30;97.10
38265;DHT22;24062;47.480;8.768;2023-04-24T02:42:46;9.30;96.80
38265;DHT22;24062;47.480;8.768;2023-04-24T02:45:13;9.30;96.50
38265;DHT22;24062;47.480;8.768;2023-04-24T02:47:40;9.30;96.50
38265;DHT22;24062;47.480;8.768;2023-04-24T02:50:09;9.20;96.70
38265;DHT22;24062;47.480;8.768;2023-04-24T02:52:36;9.20;96.80
38265;DHT22;24062;47.480;8.768;2023-04-24T02:55:03;9.20;96.90
38265;DHT22;24062;47.480;8.768;2023-04-24T02:57:30;9.10;97.10
38265;DHT22;24062;47.480;8.768;2023-04-24T02:59:57;9.20;97.20
38265;DHT22;24062;47.480;8.768;2023-04-24T03:02:24;9.20;97.10
38265;DHT22;24062;47.480;8.768;2023-04-24T03:04:51;9.20;97.00
38265;DHT22;24062;47.480;8.768;2023-04-24T03:07:20;9.10;96.90
38265;DHT22;24062;47.480;8.768;2023-04-24T03:09:47;9.10;96.80
38265;DHT22;24062;47.480;8.768;2023-04-24T03:12:14;9.10;96.90
38265;DHT22;24062;47.480;8.768;2023-04-24T03:14:42;9.00;96.90
38265;DHT22;24062;47.480;8.768;2023-04-24T03:17:09;9.00;96.90
38265;DHT22;24062;47.480;8.768;2023-04-24T03:19:36;9.00;96.90
38265;DHT22;24062;47.480;8.768;2023-04-24T03:22:03;9.00;96.60
38265;DHT22;24062;47.480;8.768;2023-04-24T03:24:31;9.00;96.70
38265;DHT22;24062;47.480;8.768;2023-04-24T03:26:58;9.10;96.90
38265;DHT22;24062;47.480;8.768;2023-04-24T03:29:25;9.10;96.90
38265;DHT22;24062;47.480;8.768;2023-04-24T03:31:52;9.10;96.80
38265;DHT22;24062;47.480;8.768;2023-04-24T03:34:19;9.20;96.90
38265;DHT22;24062;47.480;8.768;2023-04-24T03:36:46;9.20;96.70
38265;DHT22;24062;47.480;8.768;2023-04-24T03:39:14;9.20;96.50
38265;DHT22;24062;47.480;8.768;2023-04-24T03:41:42;9.20;96.00
38265;DHT22;24062;47.480;8.768;2023-04-24T03:44:09;9.20;96.00
38265;DHT22;24062;47.480;8.768;2023-04-24T03:46:36;9.20;96.20
38265;DHT22;24062;47.480;8.768;2023-04-24T03:49:03;9.20;96.00
38265;DHT22;24062;47.480;8.768;2023-04-24T03:51:30;9.10;96.10
38265;DHT22;24062;47.480;8.768;2023-04-24T03:53:57;9.00;96.10
38265;DHT22;24062;47.480;8.768;2023-04-24T03:56:24;9.00;96.00
38265;DHT22;24062;47.480;8.768;2023-04-24T03:58:52;9.00;96.20
38265;DHT22;24062;47.480;8.768;2023-04-24T04:01:19;9.00;96.30
38265;DHT22;24062;47.480;8.768;2023-04-24T04:03:46;9.00;96.20
38265;DHT22;24062;47.480;8.768;2023-04-24T04:06:13;9.10;96.00
38265;DHT22;24062;47.480;8.768;2023-04-24T04:08:40;9.10;96.10
38265;DHT22;24062;47.480;8.768;2023-04-24T04:11:07;9.10;95.80
38265;DHT22;24062;47.480;8.768;2023-04-24T04:13:34;9.10;95.80
38265;DHT22;24062;47.480;8.768;2023-04-24T04:16:02;9.10;95.70
38265;DHT22;24062;47.480;8.768;2023-04-24T04:18:29;9.00;95.50
38265;DHT22;24062;47.480;8.768;2023-04-24T04:20:56;9.00;95.50
38265;DHT22;24062;47.480;8.768;2023-04-24T04:23:24;9.00;95.60
38265;DHT22;24062;47.480;8.768;2023-04-24T04:25:51;9.00;95.80
38265;DHT22;24062;47.480;8.768;2023-04-24T04:28:18;9.00;95.80
38265;DHT22;24062;47.480;8.768;2023-04-24T04:30:46;9.00;96.00
38265;DHT22;24062;47.480;8.768;2023-04-24T04:33:15;9.10;95.70
38265;DHT22;24062;47.480;8.768;2023-04-24T04:35:42;9.10;96.00
38265;DHT22;24062;47.480;8.768;2023-04-24T04:38:09;9.10;96.10
38265;DHT22;24062;47.480;8.768;2023-04-24T04:40:36;9.20;95.90
38265;DHT22;24062;47.480;8.768;2023-04-24T04:43:03;9.20;95.90
38265;DHT22;24062;47.480;8.768;2023-04-24T04:45:30;9.30;96.20
38265;DHT22;24062;47.480;8.768;2023-04-24T04:47:58;9.30;95.90
38265;DHT22;24062;47.480;8.768;2023-04-24T04:50:27;9.40;96.10
38265;DHT22;24062;47.480;8.768;2023-04-24T04:52:54;9.40;95.70
38265;DHT22;24062;47.480;8.768;2023-04-24T04:55:21;9.40;95.70
38265;DHT22;24062;47.480;8.768;2023-04-24T04:57:48;9.50;95.90
38265;DHT22;24062;47.480;8.768;2023-04-24T05:00:16;9.50;95.60
38265;DHT22;24062;47.480;8.768;2023-04-24T05:02:43;9.50;95.40
38265;DHT22;24062;47.480;8.768;2023-04-24T05:05:10;9.50;95.60
38265;DHT22;24062;47.480;8.768;2023-04-24T05:07:38;9.50;95.50
38265;DHT22;24062;47.480;8.768;2023-04-24T05:10:07;9.50;95.30
38265;DHT22;24062;47.480;8.768;2023-04-24T05:12:34;9.40;95.20
38265;DHT22;24062;47.480;8.768;2023-04-24T05:15:01;9.40;95.10
38265;DHT22;24062;47.480;8.768;2023-04-24T05:17:28;9.40;95.20
38265;DHT22;24062;47.480;8.768;2023-04-24T05:19:55;9.30;95.40
38265;DHT22;24062;47.480;8.768;2023-04-24T05:22:22;9.30;95.30
38265;DHT22;24062;47.480;8.768;2023-04-24T05:24:50;9.30;95.20
38265;DHT22;24062;47.480;8.768;2023-04-24T05:27:17;9.30;95.00
38265;DHT22;24062;47.480;8.768;2023-04-24T05:29:44;9.20;95.40
38265;DHT22;24062;47.480;8.768;2023-04-24T05:32:11;9.20;95.70
38265;DHT22;24062;47.480;8.768;2023-04-24T05:34:38;9.20;95.90
38265;DHT22;24062;47.480;8.768;2023-04-24T05:37:05;9.30;96.10
38265;DHT22;24062;47.480;8.768;2023-04-24T05:39:35;9.30;95.90
38265;DHT22;24062;47.480;8.768;2023-04-24T05:42:03;9.20;95.40
38265;DHT22;24062;47.480;8.768;2023-04-24T05:44:31;9.20;95.50
38265;DHT22;24062;47.480;8.768;2023-04-24T05:46:58;9.20;96.00
38265;DHT22;24062;47.480;8.768;2023-04-24T05:49:25;9.20;96.20
38265;DHT22;24062;47.480;8.768;2023-04-24T05:51:52;9.30;96.10
38265;DHT22;24062;47.480;8.768;2023-04-24T05:54:18;9.30;96.00
38265;DHT22;24062;47.480;8.768;2023-04-24T05:56:45;9.40;96.30
38265;DHT22;24062;47.480;8.768;2023-04-24T05:59:14;9.30;95.70
38265;DHT22;24062;47.480;8.768;2023-04-24T06:01:41;9.30;95.70
38265;DHT22;24062;47.480;8.768;2023-04-24T06:04:08;9.30;96.20
38265;DHT22;24062;47.480;8.768;2023-04-24T06:06:35;9.30;95.90
38265;DHT22;24062;47.480;8.768;2023-04-24T06:09:02;9.40;96.00
38265;DHT22;24062;47.480;8.768;2023-04-24T06:11:30;9.40;96.30
38265;DHT22;24062;47.480;8.768;2023-04-24T06:13:57;9.50;96.30
38265;DHT22;24062;47.480;8.768;2023-04-24T06:16:26;9.60;96.10
38265;DHT22;24062;47.480;8.768;2023-04-24T06:18:53;9.70;96.20
38265;DHT22;24062;47.480;8.768;2023-04-24T06:21:20;9.80;96.40
38265;DHT22;24062;47.480;8.768;2023-04-24T06:23:47;10.00;96.10
38265;DHT22;24062;47.480;8.768;2023-04-24T06:26:15;10.10;94.10
38265;DHT22;24062;47.480;8.768;2023-04-24T06:28:42;10.10;94.70
38265;DHT22;24062;47.480;8.768;2023-04-24T06:31:09;10.20;95.00
38265;DHT22;24062;47.480;8.768;2023-04-24T06:33:37;10.40;94.10
38265;DHT22;24062;47.480;8.768;2023-04-24T06:36:04;10.40;93.80
38265;DHT22;24062;47.480;8.768;2023-04-24T06:38:31;10.50;93.40
38265;DHT22;24062;47.480;8.768;2023-04-24T06:40:58;10.50;93.80
38265;DHT22;24062;47.480;8.768;2023-04-24T06:43:25;10.40;92.00
38265;DHT22;24062;47.480;8.768;2023-04-24T06:45:52;10.40;92.90
38265;DHT22;24062;47.480;8.768;2023-04-24T06:48:19;10.40;92.80
38265;DHT22;24062;47.480;8.768;2023-04-24T06:50:47;10.60;92.70
38265;DHT22;24062;47.480;8.768;2023-04-24T06:53:14;10.80;92.70
38265;DHT22;24062;47.480;8.768;2023-04-24T06:55:41;11.20;92.90
38265;DHT22;24062;47.480;8.768;2023-04-24T06:58:08;11.60;92.40
38265;DHT22;24062;47.480;8.768;2023-04-24T07:00:35;11.80;91.30
38265;DHT22;24062;47.480;8.768;2023-04-24T07:03:03;11.90;91.00
38265;DHT22;24062;47.480;8.768;2023-04-24T07:05:30;11.60;90.10
38265;DHT22;24062;47.480;8.768;2023-04-24T07:08:01;11.40;90.50
38265;DHT22;24062;47.480;8.768;2023-04-24T07:10:28;11.40;90.90
38265;DHT22;24062;47.480;8.768;2023-04-24T07:12:54;11.30;91.10
38265;DHT22;24062;47.480;8.768;2023-04-24T07:15:22;11.30;90.60
38265;DHT22;24062;47.480;8.768;2023-04-24T07:17:49;11.30;91.10
38265;DHT22;24062;47.480;8.768;2023-04-24T07:20:16;11.40;90.90
38265;DHT22;24062;47.480;8.768;2023-04-24T07:22:43;11.40;91.10
38265;DHT22;24062;47.480;8.768;2023-04-24T07:25:11;11.50;91.40
38265;DHT22;24062;47.480;8.768;2023-04-24T07:27:38;11.50;91.00
38265;DHT22;24062;47.480;8.768;2023-04-24T07:30:06;11.60;91.00
38265;DHT22;24062;47.480;8.768;2023-04-24T07:32:33;11.80;90.60
38265;DHT22;24062;47.480;8.768;2023-04-24T07:35:00;11.80;90.20
38265;DHT22;24062;47.480;8.768;2023-04-24T07:37:28;11.80;90.00
38265;DHT22;24062;47.480;8.768;2023-04-24T07:39:55;11.80;90.10
38265;DHT22;24062;47.480;8.768;2023-04-24T07:42:24;12.20;90.60
38265;DHT22;24062;47.480;8.768;2023-04-24T07:44:50;12.60;90.50
38265;DHT22;24062;47.480;8.768;2023-04-24T07:47:17;12.60;89.40
38265;DHT22;24062;47.480;8.768;2023-04-24T07:49:44;12.60;89.10
38265;DHT22;24062;47.480;8.768;2023-04-24T07:52:11;12.60;89.00
38265;DHT22;24062;47.480;8.768;2023-04-24T07:54:38;12.60;86.40
38265;DHT22;24062;47.480;8.768;2023-04-24T07:57:05;12.40;85.30
38265;DHT22;24062;47.480;8.768;2023-04-24T07:59:35;12.20;85.90
38265;DHT22;24062;47.480;8.768;2023-04-24T08:02:02;12.30;87.10
38265;DHT22;24062;47.480;8.768;2023-04-24T08:04:29;12.20;85.80
38265;DHT22;24062;47.480;8.768;2023-04-24T08:06:55;12.00;85.20
38265;DHT22;24062;47.480;8.768;2023-04-24T08:09:22;11.40;85.60
38265;DHT22;24062;47.480;8.768;2023-04-24T08:11:50;10.70;86.80
38265;DHT22;24062;47.480;8.768;2023-04-24T08:14:16;10.10;88.30
38265;DHT22;24062;47.480;8.768;2023-04-24T08:16:45;9.70;88.10
38265;DHT22;24062;47.480;8.768;2023-04-24T08:19:12;9.20;88.30
38265;DHT22;24062;47.480;8.768;2023-04-24T08:21:39;9.00;88.90
38265;DHT22;24062;47.480;8.768;2023-04-24T08:24:06;8.90;90.30
38265;DHT22;24062;47.480;8.768;2023-04-24T08:26:33;8.90;90.80
38265;DHT22;24062;47.480;8.768;2023-04-24T08:29:00;9.00;90.50
38265;DHT22;24062;47.480;8.768;2023-04-24T08:31:27;9.10;91.00
38265;DHT22;24062;47.480;8.768;2023-04-24T08:33:55;9.10;90.40
38265;DHT22;24062;47.480;8.768;2023-04-24T08:36:22;9.20;90.30
38265;DHT22;24062;47.480;8.768;2023-04-24T08:38:49;9.40;91.50
38265;DHT22;24062;47.480;8.768;2023-04-24T08:41:18;9.40;89.90
38265;DHT22;24062;47.480;8.768;2023-04-24T08:43:46;9.20;90.00
38265;DHT22;24062;47.480;8.768;2023-04-24T08:46:13;8.90;89.60
38265;DHT22;24062;47.480;8.768;2023-04-24T08:48:42;8.50;90.10
38265;DHT22;24062;47.480;8.768;2023-04-24T08:51:11;8.20;91.00
38265;DHT22;24062;47.480;8.768;2023-04-24T08:53:38;8.20;91.50
38265;DHT22;24062;47.480;8.768;2023-04-24T08:56:05;8.30;92.60
38265;DHT22;24062;47.480;8.768;2023-04-24T08:58:33;8.50;92.50
38265;DHT22;24062;47.480;8.768;2023-04-24T09:01:00;8.70;92.30
38265;DHT22;24062;47.480;8.768;2023-04-24T09:03:28;8.80;91.80
38265;DHT22;24062;47.480;8.768;2023-04-24T09:05:56;9.00;91.60
38265;DHT22;24062;47.480;8.768;2023-04-24T09:08:26;9.30;92.80
38265;DHT22;24062;47.480;8.768;2023-04-24T09:10:54;9.60;91.30
38265;DHT22;24062;47.480;8.768;2023-04-24T09:13:24;9.60;91.30
38265;DHT22;24062;47.480;8.768;2023-04-24T09:15:51;9.80;92.20
38265;DHT22;24062;47.480;8.768;2023-04-24T09:18:19;10.10;92.30
38265;DHT22;24062;47.480;8.768;2023-04-24T09:20:59;10.40;91.00
38265;DHT22;24062;47.480;8.768;2023-04-24T09:23:28;10.50;91.30
38265;DHT22;24062;47.480;8.768;2023-04-24T09:25:56;10.70;90.60
38265;DHT22;24062;47.480;8.768;2023-04-24T09:28:26;10.60;89.60
38265;DHT22;24062;47.480;8.768;2023-04-24T09:31:07;10.80;90.10
38265;DHT22;24062;47.480;8.768;2023-04-24T09:33:35;11.30;91.20
38265;DHT22;24062;47.480;8.768;2023-04-24T09:36:03;11.80;89.00
38265;DHT22;24062;47.480;8.768;2023-04-24T09:38:36;11.90;86.60
38265;DHT22;24062;47.480;8.768;2023-04-24T09:41:06;11.80;82.80
38265;DHT22;24062;47.480;8.768;2023-04-24T09:43:34;11.80;85.20
38265;DHT22;24062;47.480;8.768;2023-04-24T09:46:05;11.80;84.70
38265;DHT22;24062;47.480;8.768;2023-04-24T09:48:33;11.80;80.90
38265;DHT22;24062;47.480;8.768;2023-04-24T09:51:01;11.70;82.30
38265;DHT22;24062;47.480;8.768;2023-04-24T09:53:30;11.60;80.30
38265;DHT22;24062;47.480;8.768;2023-04-24T09:56:02;11.40;79.40
38265;DHT22;24062;47.480;8.768;2023-04-24T09:58:29;11.40;82.40
38265;DHT22;24062;47.480;8.768;2023-04-24T10:00:56;11.40;80.40
38265;DHT22;24062;47.480;8.768;2023-04-24T10:03:24;11.30;80.30
38265;DHT22;24062;47.480;8.768;2023-04-24T10:05:53;11.30;80.30
38265;DHT22;24062;47.480;8.768;2023-04-24T10:08:22;11.30;80.50
38265;DHT22;24062;47.480;8.768;2023-04-24T10:10:49;11.50;82.50
38265;DHT22;24062;47.480;8.768;2023-04-24T10:13:17;11.80;82.50
38265;DHT22;24062;47.480;8.768;2023-04-24T10:15:44;11.80;82.10
38265;DHT22;24062;47.480;8.768;2023-04-24T10:18:13;11.90;81.80
38265;DHT22;24062;47.480;8.768;2023-04-24T10:20:40;12.20;81.20
38265;DHT22;24062;47.480;8.768;2023-04-24T10:23:07;12.30;78.30
38265;DHT22;24062;47.480;8.768;2023-04-24T10:25:35;12.30;79.70
38265;DHT22;24062;47.480;8.768;2023-04-24T10:28:03;12.60;79.40
38265;DHT22;24062;47.480;8.768;2023-04-24T10:30:33;12.80;78.00
38265;DHT22;24062;47.480;8.768;2023-04-24T10:33:02;12.90;73.30
38265;DHT22;24062;47.480;8.768;2023-04-24T10:35:31;12.90;73.80
38265;DHT22;24062;47.480;8.768;2023-04-24T10:38:02;13.10;73.50
38265;DHT22;24062;47.480;8.768;2023-04-24T10:40:31;13.20;73.00
38265;DHT22;24062;47.480;8.768;2023-04-24T10:42:59;13.40;74.70
38265;DHT22;24062;47.480;8.768;2023-04-24T10:45:26;13.70;72.90
38265;DHT22;24062;47.480;8.768;2023-04-24T10:47:57;13.70;69.90
38265;DHT22;24062;47.480;8.768;2023-04-24T10:50:26;13.70;68.30
38265;DHT22;24062;47.480;8.768;2023-04-24T10:52:55;13.70;68.90
38265;DHT22;24062;47.480;8.768;2023-04-24T10:55:46;13.70;68.00
38265;DHT22;24062;47.480;8.768;2023-04-24T10:58:14;13.80;68.40
38265;DHT22;24062;47.480;8.768;2023-04-24T11:00:42;13.70;64.40
38265;DHT22;24062;47.480;8.768;2023-04-24T11:03:25;13.60;65.70
38265;DHT22;24062;47.480;8.768;2023-04-24T11:05:56;13.70;66.00
38265;DHT22;24062;47.480;8.768;2023-04-24T11:08:25;13.90;66.10
38265;DHT22;24062;47.480;8.768;2023-04-24T11:10:58;14.10;65.60
38265;DHT22;24062;47.480;8.768;2023-04-24T11:13:26;14.30;64.00
38265;DHT22;24062;47.480;8.768;2023-04-24T11:16:15;14.30;64.20
38265;DHT22;24062;47.480;8.768;2023-04-24T11:18:43;14.30;64.50
38265;DHT22;24062;47.480;8.768;2023-04-24T11:21:17;14.60;63.50
38265;DHT22;24062;47.480;8.768;2023-04-24T11:23:44;14.80;62.10
38265;DHT22;24062;47.480;8.768;2023-04-24T11:26:13;14.80;61.50
38265;DHT22;24062;47.480;8.768;2023-04-24T11:31:36;15.20;59.70
38265;DHT22;24062;47.480;8.768;2023-04-24T11:34:12;15.60;62.00
38265;DHT22;24062;47.480;8.768;2023-04-24T11:36:40;16.10;60.20
38265;DHT22;24062;47.480;8.768;2023-04-24T11:39:09;15.90;58.20
38265;DHT22;24062;47.480;8.768;2023-04-24T11:41:37;15.60;59.10
38265;DHT22;24062;47.480;8.768;2023-04-24T11:44:06;15.80;59.50
38265;DHT22;24062;47.480;8.768;2023-04-24T11:46:33;16.10;58.50
38265;DHT22;24062;47.480;8.768;2023-04-24T11:49:00;16.20;57.80
38265;DHT22;24062;47.480;8.768;2023-04-24T11:51:29;15.90;57.00
38265;DHT22;24062;47.480;8.768;2023-04-24T11:53:57;15.70;56.70
38265;DHT22;24062;47.480;8.768;2023-04-24T11:56:25;15.60;57.10
38265;DHT22;24062;47.480;8.768;2023-04-24T11:58:52;15.70;56.30
38265;DHT22;24062;47.480;8.768;2023-04-24T12:01:20;15.40;55.10
38265;DHT22;24062;47.480;8.768;2023-04-24T12:03:48;15.40;56.60
38265;DHT22;24062;47.480;8.768;2023-04-24T12:06:16;15.60;55.80
38265;DHT22;24062;47.480;8.768;2023-04-24T12:08:47;15.70;54.90
38265;DHT22;24062;47.480;8.768;2023-04-24T12:11:15;15.80;55.80
38265;DHT22;24062;47.480;8.768;2023-04-24T12:13:44;16.00;55.90
38265;DHT22;24062;47.480;8.768;2023-04-24T12:16:12;16.30;55.00
38265;DHT22;24062;47.480;8.768;2023-04-24T12:18:43;16.20;54.70
38265;DHT22;24062;47.480;8.768;2023-04-24T12:21:18;16.30;55.60
38265;DHT22;24062;47.480;8.768;2023-04-24T12:23:47;16.20;55.10
38265;DHT22;24062;47.480;8.768;2023-04-24T12:26:17;16.30;54.50
38265;DHT22;24062;47.480;8.768;2023-04-24T12:28:47;16.20;53.30
38265;DHT22;24062;47.480;8.768;2023-04-24T12:31:15;16.30;54.40
38265;DHT22;24062;47.480;8.768;2023-04-24T12:33:42;16.50;54.70
38265;DHT22;24062;47.480;8.768;2023-04-24T12:36:10;16.60;53.50
38265;DHT22;24062;47.480;8.768;2023-04-24T12:38:39;16.60;53.00
38265;DHT22;24062;47.480;8.768;2023-04-24T12:41:12;16.50;53.40
38265;DHT22;24062;47.480;8.768;2023-04-24T12:43:51;16.60;52.70
38265;DHT22;24062;47.480;8.768;2023-04-24T12:46:18;16.90;52.60
38265;DHT22;24062;47.480;8.768;2023-04-24T12:48:45;17.20;53.00
38265;DHT22;24062;47.480;8.768;2023-04-24T12:51:12;17.40;51.90
38265;DHT22;24062;47.480;8.768;2023-04-24T12:53:39;17.20;53.10
38265;DHT22;24062;47.480;8.768;2023-04-24T12:56:06;17.10;51.30
38265;DHT22;24062;47.480;8.768;2023-04-24T12:58:34;16.70;50.70
38265;DHT22;24062;47.480;8.768;2023-04-24T13:01:01;16.60;51.40
38265;DHT22;24062;47.480;8.768;2023-04-24T13:03:28;16.80;51.30
38265;DHT22;24062;47.480;8.768;2023-04-24T13:05:55;16.80;51.20
38265;DHT22;24062;47.480;8.768;2023-04-24T13:08:22;16.80;50.10
38265;DHT22;24062;47.480;8.768;2023-04-24T13:10:49;16.70;50.10
38265;DHT22;24062;47.480;8.768;2023-04-24T13:13:17;16.80;49.80
38265;DHT22;24062;47.480;8.768;2023-04-24T13:15:45;17.00;51.00
38265;DHT22;24062;47.480;8.768;2023-04-24T13:18:12;17.50;51.90
38265;DHT22;24062;47.480;8.768;2023-04-24T13:20:39;18.10;50.80
38265;DHT22;24062;47.480;8.768;2023-04-24T13:23:07;18.50;49.60
38265;DHT22;24062;47.480;8.768;2023-04-24T13:25:36;18.80;49.30
38265;DHT22;24062;47.480;8.768;2023-04-24T13:28:04;19.30;48.90
38265;DHT22;24062;47.480;8.768;2023-04-24T13:30:31;19.80;47.40
38265;DHT22;24062;47.480;8.768;2023-04-24T13:33:00;20.10;47.80
38265;DHT22;24062;47.480;8.768;2023-04-24T13:35:27;20.10;47.60
38265;DHT22;24062;47.480;8.768;2023-04-24T13:37:54;20.60;48.00
38265;DHT22;24062;47.480;8.768;2023-04-24T13:40:21;21.10;45.60
38265;DHT22;24062;47.480;8.768;2023-04-24T13:42:48;21.00;45.90
38265;DHT22;24062;47.480;8.768;2023-04-24T13:45:15;21.00;44.90
38265;DHT22;24062;47.480;8.768;2023-04-24T13:47:42;21.00;46.10
38265;DHT22;24062;47.480;8.768;2023-04-24T13:50:10;21.60;47.30
38265;DHT22;24062;47.480;8.768;2023-04-24T13:52:37;22.70;45.60
38265;DHT22;24062;47.480;8.768;2023-04-24T13:55:06;22.90;44.60
38265;DHT22;24062;47.480;8.768;2023-04-24T13:57:33;23.20;44.30
38265;DHT22;24062;47.480;8.768;2023-04-24T14:00:00;24.30;43.90
38265;DHT22;24062;47.480;8.768;2023-04-24T14:02:29;26.00;44.00
38265;DHT22;24062;47.480;8.768;2023-04-24T14:04:56;26.50;42.80
38265;DHT22;24062;47.480;8.768;2023-04-24T14:07:24;24.60;39.50
38265;DHT22;24062;47.480;8.768;2023-04-24T14:09:51;22.60;40.30
38265;DHT22;24062;47.480;8.768;2023-04-24T14:12:18;23.90;44.50
38265;DHT22;24062;47.480;8.768;2023-04-24T14:14:46;27.00;44.30
38265;DHT22;24062;47.480;8.768;2023-04-24T14:17:14;29.70;43.30
38265;DHT22;24062;47.480;8.768;2023-04-24T14:19:41;31.30;39.70
38265;DHT22;24062;47.480;8.768;2023-04-24T14:22:08;29.00;36.80
38265;DHT22;24062;47.480;8.768;2023-04-24T14:24:36;26.10;36.50
38265;DHT22;24062;47.480;8.768;2023-04-24T14:27:03;23.10;37.30
38265;DHT22;24062;47.480;8.768;2023-04-24T14:29:30;20.80;38.70
38265;DHT22;24062;47.480;8.768;2023-04-24T14:31:57;19.30;40.20
38265;DHT22;24062;47.480;8.768;2023-04-24T14:34:24;19.40;42.10
38265;DHT22;24062;47.480;8.768;2023-04-24T14:36:52;19.20;41.60
38265;DHT22;24062;47.480;8.768;2023-04-24T14:39:20;18.40;41.80
38265;DHT22;24062;47.480;8.768;2023-04-24T14:41:48;17.70;43.00
38265;DHT22;24062;47.480;8.768;2023-04-24T14:44:15;17.10;43.40
38265;DHT22;24062;47.480;8.768;2023-04-24T14:46:42;16.50;44.00
38265;DHT22;24062;47.480;8.768;2023-04-24T14:49:09;15.90;44.50
38265;DHT22;24062;47.480;8.768;2023-04-24T14:51:37;16.60;47.30
38265;DHT22;24062;47.480;8.768;2023-04-24T14:54:05;17.70;46.50
38265;DHT22;24062;47.480;8.768;2023-04-24T14:56:32;20.00;49.20
38265;DHT22;24062;47.480;8.768;2023-04-24T14:59:00;21.30;44.60
38265;DHT22;24062;47.480;8.768;2023-04-24T15:01:27;21.30;43.80
38265;DHT22;24062;47.480;8.768;2023-04-24T15:03:54;21.90;42.50
38265;DHT22;24062;47.480;8.768;2023-04-24T15:06:21;21.60;43.20
38265;DHT22;24062;47.480;8.768;2023-04-24T15:08:48;24.10;46.40
38265;DHT22;24062;47.480;8.768;2023-04-24T15:11:15;28.10;45.80
38265;DHT22;24062;47.480;8.768;2023-04-24T15:13:42;29.90;43.10
38265;DHT22;24062;47.480;8.768;2023-04-24T15:16:12;31.90;42.20
38265;DHT22;24062;47.480;8.768;2023-04-24T15:18:39;33.60;40.60
38265;DHT22;24062;47.480;8.768;2023-04-24T15:21:05;34.60;38.50
38265;DHT22;24062;47.480;8.768;2023-04-24T15:23:32;34.60;35.60
38265;DHT22;24062;47.480;8.768;2023-04-24T15:25:59;32.30;33.00
38265;DHT22;24062;47.480;8.768;2023-04-24T15:28:27;30.90;33.00
38265;DHT22;24062;47.480;8.768;2023-04-24T15:30:54;27.80;32.70
38265;DHT22;24062;47.480;8.768;2023-04-24T15:33:22;26.00;34.70
38265;DHT22;24062;47.480;8.768;2023-04-24T15:35:49;24.60;34.90
38265;DHT22;24062;47.480;8.768;2023-04-24T15:38:17;23.20;36.00
38265;DHT22;24062;47.480;8.768;2023-04-24T15:40:44;22.30;35.80
38265;DHT22;24062;47.480;8.768;2023-04-24T15:43:11;21.50;36.20